createdAt,value
2017-04-09T00:00:20.055Z,0
2017-04-09T00:01:20.097Z,0
2017-04-09T00:02:20.110Z,0
2017-04-09T00:03:20.141Z,0
2017-04-09T00:04:20.181Z,0
2017-04-09T00:05:20.213Z,0
2017-04-09T00:06:20.215Z,0
2017-04-09T00:07:20.285Z,0
2017-04-09T00:08:20.323Z,0
2017-04-09T00:09:20.340Z,0
2017-04-09T00:10:20.370Z,0
2017-04-09T00:11:20.401Z,0
2017-04-09T00:12:20.424Z,0
2017-04-09T00:13:20.460Z,0
2017-04-09T00:14:20.477Z,0
2017-04-09T00:15:20.487Z,0
2017-04-09T00:16:20.532Z,0
2017-04-09T00:17:20.581Z,0
2017-04-09T00:18:20.593Z,0
2017-04-09T00:19:20.624Z,0
2017-04-09T00:20:20.660Z,0
2017-04-09T00:21:20.712Z,0
2017-04-09T00:22:20.728Z,0
2017-04-09T00:23:20.751Z,0
2017-04-09T00:24:20.741Z,0
2017-04-09T00:25:20.822Z,0
2017-04-09T00:26:20.849Z,0
2017-04-09T00:27:20.877Z,0
2017-04-09T00:28:20.911Z,0
2017-04-09T00:29:20.934Z,0
2017-04-09T00:30:20.952Z,0
2017-04-09T00:31:20.996Z,0
2017-04-09T00:32:21.003Z,0
2017-04-09T00:33:21.072Z,0
2017-04-09T00:34:21.103Z,0
2017-04-09T00:35:21.129Z,0
2017-04-09T00:36:21.147Z,0
2017-04-09T00:37:21.153Z,0
2017-04-09T00:38:21.220Z,0
2017-04-09T00:39:21.241Z,0
2017-04-09T00:40:21.266Z,0
2017-04-09T00:41:21.295Z,0
2017-04-09T00:42:21.332Z,0
2017-04-09T00:43:21.365Z,0
2017-04-09T00:44:21.365Z,0
2017-04-09T00:45:21.428Z,0
2017-04-09T00:46:21.461Z,0
2017-04-09T00:47:21.466Z,0
2017-04-09T00:48:21.498Z,0
2017-04-09T00:49:21.544Z,0
2017-04-09T00:50:21.587Z,0
2017-04-09T00:51:21.601Z,0
2017-04-09T00:52:21.637Z,0
2017-04-09T00:53:21.686Z,0
2017-04-09T00:54:21.696Z,0
2017-04-09T00:55:21.739Z,0
2017-04-09T00:56:21.752Z,0
2017-04-09T00:57:21.785Z,0
2017-04-09T00:58:21.825Z,0
2017-04-09T00:59:21.837Z,0
2017-04-09T01:00:21.880Z,0
2017-04-09T01:01:21.914Z,0
2017-04-09T01:02:21.939Z,0
2017-04-09T01:03:21.957Z,0
2017-04-09T01:04:21.985Z,0
2017-04-09T01:05:22.025Z,0
2017-04-09T01:06:22.028Z,0
2017-04-09T01:07:22.095Z,0
2017-04-09T01:08:22.133Z,0
2017-04-09T01:09:22.123Z,0
2017-04-09T01:10:22.167Z,0
2017-04-09T01:11:22.215Z,0
2017-04-09T01:12:22.233Z,0
2017-04-09T01:13:22.295Z,0
2017-04-09T01:14:22.300Z,0
2017-04-09T01:15:22.348Z,0
2017-04-09T01:16:22.379Z,0
2017-04-09T01:17:22.406Z,0
2017-04-09T01:18:22.443Z,0
2017-04-09T01:19:22.455Z,0
2017-04-09T01:20:22.485Z,0
2017-04-09T01:21:22.518Z,0
2017-04-09T01:22:22.548Z,0
2017-04-09T01:23:22.585Z,0
2017-04-09T01:24:22.616Z,0
2017-04-09T01:25:22.643Z,0
2017-04-09T01:26:22.677Z,0
2017-04-09T01:27:22.682Z,0
2017-04-09T01:28:22.733Z,0
2017-04-09T01:29:22.759Z,0
2017-04-09T01:30:22.794Z,0
2017-04-09T01:31:22.783Z,0
2017-04-09T01:32:22.847Z,0
2017-04-09T01:33:22.856Z,0
2017-04-09T01:34:22.931Z,0
2017-04-09T01:35:22.948Z,0
2017-04-09T01:36:22.988Z,0
2017-04-09T01:37:22.995Z,0
2017-04-09T01:38:23.052Z,0
2017-04-09T01:39:23.074Z,0
2017-04-09T01:40:23.084Z,0
2017-04-09T01:41:23.130Z,0
2017-04-09T01:42:23.164Z,0
2017-04-09T01:43:23.188Z,0
2017-04-09T01:44:23.223Z,0
2017-04-09T01:45:23.264Z,0
2017-04-09T01:46:23.287Z,0
2017-04-09T01:47:23.337Z,0
2017-04-09T01:48:23.348Z,0
2017-04-09T01:49:23.391Z,0
2017-04-09T01:50:23.396Z,0
2017-04-09T01:51:23.398Z,0
2017-04-09T01:52:23.458Z,0
2017-04-09T01:53:23.499Z,0
2017-04-09T01:54:23.488Z,0
2017-04-09T01:55:23.562Z,0
2017-04-09T01:56:23.574Z,0
2017-04-09T01:57:23.629Z,0
2017-04-09T01:58:23.627Z,0
2017-04-09T01:59:23.685Z,0
2017-04-09T02:00:23.864Z,0
2017-04-09T02:01:23.734Z,0
2017-04-09T02:02:23.800Z,0
2017-04-09T02:03:23.782Z,0
2017-04-09T02:04:23.822Z,0
2017-04-09T02:05:24.023Z,0
2017-04-09T02:06:23.899Z,0
2017-04-09T02:07:23.919Z,0
2017-04-09T02:08:23.963Z,0
2017-04-09T02:09:24.005Z,0
2017-04-09T02:10:24.172Z,0
2017-04-09T02:11:24.041Z,0
2017-04-09T02:12:24.098Z,0
2017-04-09T02:13:24.109Z,0
2017-04-09T02:14:24.105Z,0
2017-04-09T02:15:24.462Z,0
2017-04-09T02:16:24.190Z,0
2017-04-09T02:17:24.219Z,0
2017-04-09T02:18:24.274Z,0
2017-04-09T02:19:24.296Z,0
2017-04-09T02:20:24.626Z,0
2017-04-09T02:21:24.364Z,0
2017-04-09T02:22:24.399Z,0
2017-04-09T02:23:43.228Z,0
2017-04-09T02:24:43.296Z,0
2017-04-09T02:25:43.307Z,0
2017-04-09T02:26:43.366Z,0
2017-04-09T02:27:43.388Z,0
2017-04-09T02:28:43.416Z,0
2017-04-09T02:29:43.462Z,0
2017-04-09T02:30:43.588Z,0
2017-04-09T02:31:43.518Z,0
2017-04-09T02:32:43.539Z,0
2017-04-09T02:33:43.556Z,0
2017-04-09T02:34:43.617Z,0
2017-04-09T02:35:43.792Z,0
2017-04-09T02:36:43.664Z,0
2017-04-09T02:37:43.705Z,0
2017-04-09T02:38:43.746Z,0
2017-04-09T02:39:43.765Z,0
2017-04-09T02:40:44.127Z,0
2017-04-09T02:41:43.817Z,0
2017-04-09T02:42:43.853Z,0
2017-04-09T02:43:43.889Z,0
2017-04-09T02:44:43.905Z,0
2017-04-09T02:45:44.040Z,0
2017-04-09T02:46:43.993Z,0
2017-04-09T02:47:43.996Z,0
2017-04-09T02:48:44.056Z,0
2017-04-09T02:49:44.072Z,0
2017-04-09T02:50:44.090Z,0
2017-04-09T02:51:44.119Z,0
2017-04-09T02:52:44.159Z,0
2017-04-09T02:53:44.159Z,0
2017-04-09T02:54:44.200Z,0
2017-04-09T02:55:44.223Z,0
2017-04-09T02:56:44.278Z,0
2017-04-09T02:57:44.281Z,0
2017-04-09T02:58:44.326Z,0
2017-04-09T02:59:44.365Z,0
2017-04-09T03:00:44.392Z,0
2017-04-09T03:01:44.404Z,0
2017-04-09T03:02:44.454Z,0
2017-04-09T03:03:44.486Z,0
2017-04-09T03:04:44.497Z,0
2017-04-09T03:05:44.567Z,0
2017-04-09T03:06:44.554Z,0
2017-04-09T03:07:44.665Z,0
2017-04-09T03:08:44.663Z,0
2017-04-09T03:09:44.665Z,0
2017-04-09T03:10:44.710Z,0
2017-04-09T03:11:44.733Z,0
2017-04-09T03:12:44.769Z,0
2017-04-09T03:13:44.818Z,0
2017-04-09T03:14:44.793Z,0
2017-04-09T03:15:44.843Z,0
2017-04-09T03:16:44.995Z,0
2017-04-09T03:17:44.924Z,0
2017-04-09T03:18:44.960Z,0
2017-04-09T03:19:44.978Z,0
2017-04-09T03:20:44.996Z,0
2017-04-09T03:21:45.138Z,0
2017-04-09T03:22:45.073Z,0
2017-04-09T03:23:45.118Z,0
2017-04-09T03:24:45.142Z,0
2017-04-09T03:25:45.153Z,0
2017-04-09T03:26:45.300Z,0
2017-04-09T03:27:45.201Z,0
2017-04-09T03:28:45.271Z,0
2017-04-09T03:29:45.270Z,0
2017-04-09T03:30:45.283Z,0
2017-04-09T03:31:45.431Z,0
2017-04-09T03:32:45.389Z,0
2017-04-09T03:33:45.441Z,0
2017-04-09T03:34:45.440Z,0
2017-04-09T03:35:45.469Z,0
2017-04-09T03:36:45.647Z,0
2017-04-09T03:37:45.546Z,0
2017-04-09T03:38:45.567Z,0
2017-04-09T03:39:45.593Z,0
2017-04-09T03:40:45.605Z,0
2017-04-09T03:41:45.665Z,0
2017-04-09T03:42:45.687Z,0
2017-04-09T03:43:45.686Z,0
2017-04-09T03:44:45.734Z,0
2017-04-09T03:45:45.791Z,0
2017-04-09T03:46:45.796Z,0
2017-04-09T03:47:45.823Z,0
2017-04-09T03:48:45.870Z,0
2017-04-09T03:49:45.901Z,0
2017-04-09T03:50:45.906Z,0
2017-04-09T03:51:45.946Z,0
2017-04-09T03:52:45.964Z,0
2017-04-09T03:53:46.021Z,0
2017-04-09T03:54:46.038Z,0
2017-04-09T03:55:46.073Z,0
2017-04-09T03:56:46.099Z,0
2017-04-09T03:57:46.105Z,0
2017-04-09T03:58:46.198Z,0
2017-04-09T03:59:46.202Z,0
2017-04-09T04:00:46.455Z,0
2017-04-09T04:01:46.270Z,0
2017-04-09T04:02:46.304Z,0
2017-04-09T04:03:46.298Z,0
2017-04-09T04:04:46.340Z,0
2017-04-09T04:05:46.388Z,0
2017-04-09T04:06:46.428Z,0
2017-04-09T04:07:46.440Z,0
2017-04-09T04:08:46.491Z,0
2017-04-09T04:09:46.498Z,0
2017-04-09T04:10:46.539Z,0
2017-04-09T04:11:46.554Z,0
2017-04-09T04:12:46.598Z,0
2017-04-09T04:13:46.626Z,0
2017-04-09T04:14:46.659Z,0
2017-04-09T04:15:46.666Z,0
2017-04-09T04:16:46.699Z,0
2017-04-09T04:17:46.759Z,0
2017-04-09T04:18:46.765Z,0
2017-04-09T04:19:46.830Z,0
2017-04-09T04:20:46.846Z,0
2017-04-09T04:21:46.868Z,0
2017-04-09T04:22:46.907Z,0
2017-04-09T04:23:46.907Z,0
2017-04-09T04:24:46.985Z,0
2017-04-09T04:25:46.992Z,0
2017-04-09T04:26:47.050Z,0
2017-04-09T04:27:47.038Z,0
2017-04-09T04:28:47.093Z,5
2017-04-09T04:29:47.114Z,5
2017-04-09T04:30:47.124Z,5
2017-04-09T04:31:47.148Z,5
2017-04-09T04:32:47.209Z,5
2017-04-09T04:33:47.237Z,5
2017-04-09T04:34:47.273Z,5
2017-04-09T04:35:47.381Z,5
2017-04-09T04:36:47.307Z,5
2017-04-09T04:37:47.375Z,5
2017-04-09T04:38:47.391Z,5
2017-04-09T04:39:47.423Z,5
2017-04-09T04:40:47.455Z,10
2017-04-09T04:41:47.491Z,10
2017-04-09T04:42:47.518Z,10
2017-04-09T04:43:47.573Z,10
2017-04-09T04:44:47.548Z,10
2017-04-09T04:45:47.617Z,10
2017-04-09T04:46:47.622Z,10
2017-04-09T04:47:47.682Z,15
2017-04-09T04:48:47.706Z,15
2017-04-09T04:49:47.753Z,15
2017-04-09T04:50:47.755Z,15
2017-04-09T04:51:47.786Z,15
2017-04-09T04:52:47.839Z,15
2017-04-09T04:53:47.847Z,15
2017-04-09T04:54:47.875Z,20
2017-04-09T04:55:47.933Z,20
2017-04-09T04:56:47.935Z,20
2017-04-09T04:57:47.975Z,20
2017-04-09T04:58:47.969Z,20
2017-04-09T04:59:48.018Z,20
2017-04-09T05:00:48.106Z,20
2017-04-09T05:01:48.094Z,20
2017-04-09T05:02:48.105Z,25
2017-04-09T05:03:48.156Z,25
2017-04-09T05:04:48.170Z,25
2017-04-09T05:05:48.221Z,25
2017-04-09T05:06:48.239Z,25
2017-04-09T05:07:48.254Z,25
2017-04-09T05:08:48.315Z,25
2017-04-09T05:09:48.349Z,25
2017-04-09T05:10:48.378Z,30
2017-04-09T05:11:48.390Z,30
2017-04-09T05:12:48.456Z,30
2017-04-09T05:13:48.475Z,30
2017-04-09T05:14:48.478Z,35
2017-04-09T05:15:48.523Z,35
2017-04-09T05:16:48.601Z,35
2017-04-09T05:17:48.566Z,35
2017-04-09T05:18:48.610Z,35
2017-04-09T05:19:48.674Z,40
2017-04-09T05:20:48.667Z,40
2017-04-09T05:21:48.713Z,40
2017-04-09T05:22:48.726Z,40
2017-04-09T05:23:48.770Z,45
2017-04-09T05:24:48.785Z,50
2017-04-09T05:25:48.814Z,50
2017-04-09T05:26:48.850Z,55
2017-04-09T05:27:48.886Z,55
2017-04-09T05:28:48.910Z,60
2017-04-09T05:29:48.954Z,60
2017-04-09T05:30:48.970Z,65
2017-04-09T05:31:48.999Z,65
2017-04-09T05:32:49.019Z,70
2017-04-09T05:33:49.089Z,70
2017-04-09T05:34:49.101Z,75
2017-04-09T05:35:49.129Z,75
2017-04-09T05:36:49.146Z,75
2017-04-09T05:37:49.214Z,75
2017-04-09T05:38:49.219Z,75
2017-04-09T05:39:49.249Z,80
2017-04-09T05:40:49.379Z,85
2017-04-09T05:41:49.275Z,85
2017-04-09T05:42:49.388Z,85
2017-04-09T05:43:49.377Z,85
2017-04-09T05:44:49.427Z,85
2017-04-09T05:45:49.490Z,85
2017-04-09T05:46:49.451Z,85
2017-04-09T05:47:49.523Z,90
2017-04-09T05:48:49.511Z,90
2017-04-09T05:49:49.602Z,95
2017-04-09T05:50:49.592Z,95
2017-04-09T05:51:49.609Z,95
2017-04-09T05:52:49.693Z,90
2017-04-09T05:53:49.667Z,95
2017-04-09T05:54:49.733Z,95
2017-04-09T05:55:49.755Z,95
2017-04-09T05:56:49.807Z,100
2017-04-09T05:57:49.789Z,105
2017-04-09T05:58:49.918Z,105
2017-04-09T05:59:49.897Z,110
2017-04-09T06:00:49.897Z,110
2017-04-09T06:01:49.945Z,110
2017-04-09T06:02:49.972Z,115
2017-04-09T06:03:49.987Z,120
2017-04-09T06:04:50.098Z,125
2017-04-09T06:05:50.070Z,130
2017-04-09T06:06:50.093Z,135
2017-04-09T06:07:50.117Z,140
2017-04-09T06:08:50.178Z,150
2017-04-09T06:09:50.193Z,155
2017-04-09T06:10:50.211Z,165
2017-04-09T06:11:50.273Z,165
2017-04-09T06:12:50.290Z,175
2017-04-09T06:13:50.325Z,180
2017-04-09T06:14:50.325Z,180
2017-04-09T06:15:50.369Z,180
2017-04-09T06:16:50.436Z,190
2017-04-09T06:17:50.459Z,195
2017-04-09T06:18:50.513Z,200
2017-04-09T06:19:50.497Z,210
2017-04-09T06:20:50.554Z,215
2017-04-09T06:21:50.564Z,220
2017-04-09T06:22:50.595Z,235
2017-04-09T06:23:50.609Z,240
2017-04-09T06:24:50.661Z,245
2017-04-09T06:25:50.697Z,260
2017-04-09T06:26:50.764Z,275
2017-04-09T06:27:50.756Z,290
2017-04-09T06:28:50.788Z,300
2017-04-09T06:29:50.830Z,305
2017-04-09T06:30:50.870Z,310
2017-04-09T06:31:50.870Z,320
2017-04-09T06:32:50.912Z,325
2017-04-09T06:33:50.936Z,330
2017-04-09T06:34:50.988Z,335
2017-04-09T06:35:51.027Z,340
2017-04-09T06:36:51.027Z,350
2017-04-09T06:37:51.122Z,355
2017-04-09T06:38:51.091Z,355
2017-04-09T06:39:51.138Z,360
2017-04-09T06:40:51.244Z,370
2017-04-09T06:41:51.190Z,355
2017-04-09T06:42:51.229Z,365
2017-04-09T06:43:51.261Z,375
2017-04-09T06:44:51.347Z,390
2017-04-09T06:45:51.356Z,375
2017-04-09T06:46:51.397Z,375
2017-04-09T06:47:51.409Z,385
2017-04-09T06:48:51.432Z,390
2017-04-09T06:49:51.503Z,400
2017-04-09T06:50:51.510Z,395
2017-04-09T06:51:51.537Z,405
2017-04-09T06:52:51.585Z,425
2017-04-09T06:53:51.599Z,440
2017-04-09T06:54:51.639Z,450
2017-04-09T06:55:51.680Z,460
2017-04-09T06:56:51.708Z,465
2017-04-09T06:57:51.770Z,475
2017-04-09T06:58:51.794Z,485
2017-04-09T06:59:51.819Z,495
2017-04-09T07:00:51.816Z,515
2017-04-09T07:01:51.867Z,585
2017-04-09T07:02:51.917Z,530
2017-04-09T07:03:51.939Z,520
2017-04-09T07:04:51.970Z,515
2017-04-09T07:05:52.013Z,495
2017-04-09T07:06:52.027Z,475
2017-04-09T07:07:52.093Z,460
2017-04-09T07:08:52.130Z,450
2017-04-09T07:09:52.139Z,445
2017-04-09T07:10:52.170Z,435
2017-04-09T07:11:52.217Z,435
2017-04-09T07:12:52.250Z,425
2017-04-09T07:13:52.308Z,430
2017-04-09T07:14:52.349Z,440
2017-04-09T07:15:52.342Z,445
2017-04-09T07:16:52.400Z,450
2017-04-09T07:17:52.429Z,455
2017-04-09T07:18:52.442Z,460
2017-04-09T07:19:52.503Z,475
2017-04-09T07:20:52.506Z,480
2017-04-09T07:21:52.601Z,490
2017-04-09T07:22:52.611Z,495
2017-04-09T07:23:52.653Z,495
2017-04-09T07:24:52.660Z,500
2017-04-09T07:25:52.685Z,505
2017-04-09T07:26:52.773Z,520
2017-04-09T07:27:52.788Z,535
2017-04-09T07:28:52.786Z,545
2017-04-09T07:29:52.853Z,545
2017-04-09T07:30:52.856Z,545
2017-04-09T07:31:52.882Z,560
2017-04-09T07:32:52.940Z,575
2017-04-09T07:33:52.940Z,620
2017-04-09T07:34:53.015Z,605
2017-04-09T07:35:53.058Z,615
2017-04-09T07:36:53.090Z,650
2017-04-09T07:37:53.116Z,675
2017-04-09T07:38:53.173Z,665
2017-04-09T07:39:53.204Z,640
2017-04-09T07:40:53.267Z,585
2017-04-09T07:41:53.246Z,590
2017-04-09T07:42:53.319Z,855
2017-04-09T07:43:53.360Z,1490
2017-04-09T07:44:53.393Z,1695
2017-04-09T07:45:53.468Z,1715
2017-04-09T07:46:53.422Z,1735
2017-04-09T07:47:53.491Z,1765
2017-04-09T07:48:53.541Z,1690
2017-04-09T07:49:53.549Z,1720
2017-04-09T07:50:53.961Z,1750
2017-04-09T07:51:53.620Z,1785
2017-04-09T07:52:53.715Z,1750
2017-04-09T07:53:53.726Z,1720
2017-04-09T07:54:53.733Z,1745
2017-04-09T07:55:53.786Z,1730
2017-04-09T07:56:53.822Z,1635
2017-04-09T07:57:53.870Z,1590
2017-04-09T07:58:53.926Z,1650
2017-04-09T07:59:53.938Z,1725
2017-04-09T08:00:54.040Z,1745
2017-04-09T08:01:54.036Z,1720
2017-04-09T08:02:54.064Z,1745
2017-04-09T08:03:54.180Z,1785
2017-04-09T08:04:54.131Z,1865
2017-04-09T08:05:54.186Z,1815
2017-04-09T08:06:54.235Z,1825
2017-04-09T08:07:54.267Z,1835
2017-04-09T08:08:54.292Z,1865
2017-04-09T08:09:54.374Z,1870
2017-04-09T08:10:54.491Z,1880
2017-04-09T08:11:54.438Z,1890
2017-04-09T08:12:54.467Z,1855
2017-04-09T08:13:54.510Z,1850
2017-04-09T08:14:54.534Z,1865
2017-04-09T08:15:54.602Z,1900
2017-04-09T08:16:54.657Z,1430
2017-04-09T08:17:54.673Z,1870
2017-04-09T08:18:54.746Z,1905
2017-04-09T08:19:54.809Z,1885
2017-04-09T08:20:54.792Z,1910
2017-04-09T08:21:54.883Z,1965
2017-04-09T08:22:54.905Z,1945
2017-04-09T08:23:54.908Z,1960
2017-04-09T08:24:54.991Z,1885
2017-04-09T08:25:55.057Z,1705
2017-04-09T08:26:55.031Z,1625
2017-04-09T08:27:55.150Z,1675
2017-04-09T08:28:55.299Z,1665
2017-04-09T08:29:55.205Z,1625
2017-04-09T08:30:55.269Z,1685
2017-04-09T08:31:55.277Z,1905
2017-04-09T08:32:55.328Z,2005
2017-04-09T08:33:55.366Z,1830
2017-04-09T08:34:55.413Z,1460
2017-04-09T08:35:55.445Z,1655
2017-04-09T08:36:55.509Z,1620
2017-04-09T08:37:55.537Z,1720
2017-04-09T08:38:55.564Z,1805
2017-04-09T08:39:55.646Z,1825
2017-04-09T08:40:55.698Z,815
2017-04-09T08:41:55.736Z,1835
2017-04-09T08:42:55.775Z,850
2017-04-09T08:43:55.813Z,2030
2017-04-09T08:44:55.854Z,1620
2017-04-09T08:45:56.154Z,2075
2017-04-09T08:46:55.951Z,2080
2017-04-09T08:47:55.977Z,2115
2017-04-09T08:48:56.045Z,2085
2017-04-09T08:49:56.098Z,2035
2017-04-09T08:50:56.128Z,1065
2017-04-09T08:51:56.206Z,2070
2017-04-09T08:52:56.225Z,2115
2017-04-09T08:53:56.259Z,2130
2017-04-09T08:54:56.313Z,2120
2017-04-09T08:55:56.375Z,2100
2017-04-09T08:56:56.382Z,2200
2017-04-09T08:57:56.432Z,2220
2017-04-09T08:58:56.462Z,2180
2017-04-09T08:59:56.534Z,2115
2017-04-09T09:00:56.588Z,2100
2017-04-09T09:01:56.614Z,1890
2017-04-09T09:02:56.664Z,2120
2017-04-09T09:03:56.696Z,890
2017-04-09T09:04:56.748Z,2010
2017-04-09T09:05:56.747Z,2090
2017-04-09T09:06:56.912Z,2135
2017-04-09T09:07:56.931Z,2110
2017-04-09T09:08:56.938Z,2165
2017-04-09T09:09:57.024Z,2185
2017-04-09T09:10:57.075Z,2175
2017-04-09T09:11:57.047Z,1280
2017-04-09T09:12:57.118Z,2035
2017-04-09T09:13:57.137Z,1810
2017-04-09T09:14:57.179Z,1995
2017-04-09T09:15:57.235Z,2045
2017-04-09T09:16:57.284Z,2080
2017-04-09T09:17:57.301Z,2180
2017-04-09T09:18:57.387Z,2220
2017-04-09T09:19:57.436Z,1450
2017-04-09T09:20:57.471Z,2175
2017-04-09T09:21:57.532Z,1695
2017-04-09T09:22:57.582Z,1385
2017-04-09T09:23:57.610Z,2120
2017-04-09T09:24:57.646Z,2100
2017-04-09T09:25:57.693Z,2130
2017-04-09T09:26:57.713Z,2040
2017-04-09T09:27:57.785Z,2100
2017-04-09T09:28:57.843Z,2225
2017-04-09T09:29:57.893Z,1770
2017-04-09T09:30:57.950Z,1955
2017-04-09T09:31:57.983Z,1915
2017-04-09T09:32:58.047Z,2310
2017-04-09T09:33:58.058Z,1420
2017-04-09T09:34:58.124Z,990
2017-04-09T09:35:58.180Z,815
2017-04-09T09:36:58.206Z,710
2017-04-09T09:37:58.258Z,1035
2017-04-09T09:38:58.308Z,680
2017-04-09T09:39:58.367Z,1010
2017-04-09T09:40:58.380Z,2010
2017-04-09T09:41:58.435Z,2130
2017-04-09T09:42:58.473Z,2280
2017-04-09T09:43:58.548Z,2320
2017-04-09T09:44:58.588Z,2285
2017-04-09T09:45:58.657Z,1085
2017-04-09T09:46:58.698Z,2425
2017-04-09T09:47:58.711Z,2655
2017-04-09T09:48:58.769Z,2455
2017-04-09T09:49:58.791Z,2445
2017-04-09T09:50:58.833Z,2510
2017-04-09T09:51:58.908Z,2370
2017-04-09T09:52:58.925Z,2225
2017-04-09T09:53:58.948Z,1935
2017-04-09T09:54:59.026Z,1755
2017-04-09T09:55:59.034Z,1560
2017-04-09T09:56:59.091Z,1410
2017-04-09T09:57:59.141Z,1285
2017-04-09T09:58:59.194Z,1230
2017-04-09T09:59:59.241Z,1225
2017-04-09T10:00:59.323Z,1200
2017-04-09T10:01:59.325Z,1150
2017-04-09T10:02:59.360Z,1120
2017-04-09T10:03:59.423Z,1125
2017-04-09T10:04:59.573Z,1095
2017-04-09T10:05:59.520Z,1085
2017-04-09T10:06:59.600Z,1065
2017-04-09T10:07:59.595Z,1015
2017-04-09T10:08:59.640Z,995
2017-04-09T10:09:59.689Z,985
2017-04-09T10:10:59.739Z,980
2017-04-09T10:11:59.800Z,980
2017-04-09T10:12:59.866Z,985
2017-04-09T10:13:59.887Z,970
2017-04-09T10:14:59.924Z,970
2017-04-09T10:15:59.953Z,955
2017-04-09T10:17:00.006Z,940
2017-04-09T10:18:00.118Z,920
2017-04-09T10:19:00.098Z,925
2017-04-09T10:20:00.137Z,940
2017-04-09T10:21:00.220Z,940
2017-04-09T10:22:00.277Z,965
2017-04-09T10:23:00.284Z,975
2017-04-09T10:24:00.344Z,935
2017-04-09T10:25:00.376Z,900
2017-04-09T10:26:00.417Z,905
2017-04-09T10:27:00.473Z,900
2017-04-09T10:28:00.490Z,895
2017-04-09T10:29:00.553Z,890
2017-04-09T10:30:00.591Z,870
2017-04-09T10:31:00.635Z,890
2017-04-09T10:32:00.684Z,885
2017-04-09T10:33:00.730Z,865
2017-04-09T10:34:00.746Z,875
2017-04-09T10:35:00.840Z,895
2017-04-09T10:36:00.852Z,885
2017-04-09T10:37:00.873Z,890
2017-04-09T10:38:00.920Z,875
2017-04-09T10:39:00.961Z,870
2017-04-09T10:40:01.007Z,860
2017-04-09T10:41:01.045Z,835
2017-04-09T10:42:01.095Z,825
2017-04-09T10:43:01.165Z,800
2017-04-09T10:44:01.154Z,805
2017-04-09T10:45:01.227Z,830
2017-04-09T10:46:01.265Z,845
2017-04-09T10:47:01.320Z,825
2017-04-09T10:48:01.358Z,805
2017-04-09T10:49:01.368Z,825
2017-04-09T10:50:01.436Z,840
2017-04-09T10:51:01.476Z,835
2017-04-09T10:52:01.514Z,820
2017-04-09T10:53:01.566Z,795
2017-04-09T10:54:01.602Z,785
2017-04-09T10:55:01.627Z,795
2017-04-09T10:56:01.660Z,800
2017-04-09T10:57:01.765Z,780
2017-04-09T10:58:01.732Z,770
2017-04-09T10:59:01.815Z,745
2017-04-09T11:00:01.831Z,755
2017-04-09T11:01:01.871Z,735
2017-04-09T11:02:01.926Z,720
2017-04-09T11:03:01.968Z,700
2017-04-09T11:04:02.027Z,700
2017-04-09T11:05:02.081Z,680
2017-04-09T11:06:02.106Z,620
2017-04-09T11:07:02.126Z,590
2017-04-09T11:08:02.152Z,580
2017-04-09T11:09:02.207Z,570
2017-04-09T11:10:02.239Z,550
2017-04-09T11:11:02.250Z,545
2017-04-09T11:12:02.329Z,530
2017-04-09T11:13:02.361Z,520
2017-04-09T11:14:02.405Z,510
2017-04-09T11:15:02.452Z,495
2017-04-09T11:16:02.481Z,480
2017-04-09T11:17:02.507Z,475
2017-04-09T11:18:02.576Z,475
2017-04-09T11:19:02.618Z,470
2017-04-09T11:20:02.827Z,455
2017-04-09T11:21:02.656Z,445
2017-04-09T11:22:02.715Z,445
2017-04-09T11:23:02.730Z,440
2017-04-09T11:24:02.821Z,430
2017-04-09T11:25:02.834Z,420
2017-04-09T11:26:02.860Z,415
2017-04-09T11:27:02.925Z,415
2017-04-09T11:28:02.941Z,410
2017-04-09T11:29:02.975Z,405
2017-04-09T11:30:03.028Z,400
2017-04-09T11:31:03.136Z,395
2017-04-09T11:32:03.098Z,400
2017-04-09T11:33:03.135Z,390
2017-04-09T11:34:03.197Z,385
2017-04-09T11:35:03.228Z,380
2017-04-09T11:36:03.250Z,380
2017-04-09T11:37:03.301Z,375
2017-04-09T11:38:03.352Z,370
2017-04-09T11:39:03.599Z,370
2017-04-09T11:40:03.414Z,365
2017-04-09T11:41:03.428Z,370
2017-04-09T11:42:03.508Z,365
2017-04-09T11:43:03.554Z,360
2017-04-09T11:44:03.570Z,360
2017-04-09T11:45:03.583Z,355
2017-04-09T11:46:03.646Z,350
2017-04-09T11:47:03.665Z,345
2017-04-09T11:48:03.734Z,345
2017-04-09T11:49:03.767Z,340
2017-04-09T11:50:03.831Z,330
2017-04-09T11:51:03.844Z,325
2017-04-09T11:52:03.876Z,325
2017-04-09T11:53:03.927Z,320
2017-04-09T11:54:03.954Z,320
2017-04-09T11:55:03.999Z,315
2017-04-09T11:56:04.028Z,315
2017-04-09T11:57:04.082Z,310
2017-04-09T11:58:04.093Z,310
2017-04-09T11:59:04.133Z,305
2017-04-09T12:00:04.217Z,310
2017-04-09T12:01:04.224Z,305
2017-04-09T12:02:04.260Z,305
2017-04-09T12:03:04.292Z,305
2017-04-09T12:04:04.344Z,305
2017-04-09T12:05:04.382Z,305
2017-04-09T12:06:04.415Z,300
2017-04-09T12:07:04.451Z,305
2017-04-09T12:08:04.500Z,295
2017-04-09T12:09:04.574Z,295
2017-04-09T12:10:04.547Z,290
2017-04-09T12:11:04.654Z,285
2017-04-09T12:12:04.646Z,285
2017-04-09T12:13:04.684Z,280
2017-04-09T12:14:04.695Z,280
2017-04-09T12:15:04.809Z,275
2017-04-09T12:16:04.783Z,275
2017-04-09T12:17:04.820Z,275
2017-04-09T12:18:04.841Z,270
2017-04-09T12:19:04.892Z,270
2017-04-09T12:20:04.930Z,270
2017-04-09T12:21:04.953Z,270
2017-04-09T12:22:04.994Z,265
2017-04-09T12:23:05.049Z,265
2017-04-09T12:24:05.061Z,265
2017-04-09T12:25:05.161Z,265
2017-04-09T12:26:05.118Z,260
2017-04-09T12:27:05.207Z,260
2017-04-09T12:28:05.209Z,260
2017-04-09T12:29:05.245Z,255
2017-04-09T12:30:05.333Z,255
2017-04-09T12:31:05.326Z,255
2017-04-09T12:32:05.360Z,255
2017-04-09T12:33:05.413Z,255
2017-04-09T12:34:05.463Z,255
2017-04-09T12:35:05.494Z,255
2017-04-09T12:36:05.566Z,250
2017-04-09T12:37:05.565Z,250
2017-04-09T12:38:05.576Z,250
2017-04-09T12:39:05.651Z,245
2017-04-09T12:40:05.690Z,245
2017-04-09T12:41:05.726Z,245
2017-04-09T12:42:05.762Z,240
2017-04-09T12:43:05.794Z,240
2017-04-09T12:44:05.853Z,235
2017-04-09T12:45:05.864Z,235
2017-04-09T12:46:05.932Z,235
2017-04-09T12:47:06.120Z,235
2017-04-09T12:48:05.940Z,235
2017-04-09T12:49:06.015Z,230
2017-04-09T12:50:06.024Z,230
2017-04-09T12:51:06.065Z,230
2017-04-09T12:52:06.123Z,230
2017-04-09T12:53:06.166Z,225
2017-04-09T12:54:06.183Z,225
2017-04-09T12:55:06.223Z,225
2017-04-09T12:56:06.257Z,220
2017-04-09T12:57:06.286Z,220
2017-04-09T12:58:06.333Z,220
2017-04-09T12:59:06.385Z,220
2017-04-09T13:00:06.442Z,215
2017-04-09T13:01:06.463Z,215
2017-04-09T13:02:06.703Z,215
2017-04-09T13:03:06.565Z,220
2017-04-09T13:04:06.556Z,215
2017-04-09T13:05:06.578Z,215
2017-04-09T13:06:06.620Z,215
2017-04-09T13:07:06.660Z,215
2017-04-09T13:08:06.706Z,210
2017-04-09T13:09:06.728Z,210
2017-04-09T13:10:06.994Z,210
2017-04-09T13:11:06.842Z,210
2017-04-09T13:12:06.836Z,215
2017-04-09T13:13:06.901Z,205
2017-04-09T13:14:06.922Z,205
2017-04-09T13:15:06.994Z,210
2017-04-09T13:16:06.986Z,205
2017-04-09T13:17:06.991Z,205
2017-04-09T13:18:07.068Z,200
2017-04-09T13:19:07.112Z,200
2017-04-09T13:20:07.249Z,200
2017-04-09T13:21:07.192Z,200
2017-04-09T13:22:07.226Z,200
2017-04-09T13:23:07.242Z,195
2017-04-09T13:24:07.252Z,195
2017-04-09T13:25:07.362Z,195
2017-04-09T13:26:07.352Z,190
2017-04-09T13:27:07.382Z,190
2017-04-09T13:28:07.419Z,190
2017-04-09T13:29:07.488Z,190
2017-04-09T13:30:07.556Z,190
2017-04-09T13:31:07.547Z,190
2017-04-09T13:32:07.542Z,195
2017-04-09T13:33:07.634Z,190
2017-04-09T13:34:07.659Z,190
2017-04-09T13:35:07.750Z,190
2017-04-09T13:36:07.731Z,185
2017-04-09T13:37:07.741Z,185
2017-04-09T13:38:07.799Z,185
2017-04-09T13:39:07.821Z,185
2017-04-09T13:40:07.905Z,185
2017-04-09T13:41:07.866Z,185
2017-04-09T13:42:07.947Z,185
2017-04-09T13:43:07.981Z,185
2017-04-09T13:44:08.025Z,185
2017-04-09T13:45:08.027Z,185
2017-04-09T13:46:08.082Z,180
2017-04-09T13:47:08.120Z,180
2017-04-09T13:48:08.158Z,180
2017-04-09T13:49:08.213Z,180
2017-04-09T13:50:08.228Z,180
2017-04-09T13:51:08.280Z,180
2017-04-09T13:52:08.297Z,180
2017-04-09T13:53:08.336Z,175
2017-04-09T13:54:08.380Z,175
2017-04-09T13:55:08.403Z,175
2017-04-09T13:56:08.457Z,175
2017-04-09T13:57:08.440Z,175
2017-04-09T13:58:08.529Z,175
2017-04-09T13:59:08.541Z,175
2017-04-09T14:00:08.583Z,175
2017-04-09T14:01:08.648Z,175
2017-04-09T14:02:08.693Z,170
2017-04-09T14:03:08.711Z,170
2017-04-09T14:04:08.740Z,170